Time;durP1;ratioP1;P1;durP2;ratioP2;P2;SDS_P1;SDS_P2;PMS_P1;PMS_P2;Temp;Humidity;BMP_temperature;BMP_pressure;BME280_temperature;BME280_humidity;BME280_pressure;Samples;Min_cycle;Max_cycle;Signal;HPM_P1;HPM_P2
2022/08/13 00:00:13;;;;;;;5.13;3.13;;;;;;;18.82;100.00;101805.06;10489733;28;20032;-78
2022/08/13 00:05:14;;;;;;;6.63;3.17;;;;;;;18.60;100.00;101774.72;10521731;28;20024;-79
2022/08/13 00:10:28;;;;;;;4.72;3.50;;;;;;;18.55;100.00;101795.13;10506870;28;20040;-80
2022/08/13 00:15:35;;;;;;;7.93;4.18;;;;;;;18.44;100.00;101793.47;10480644;28;20037;-79
2022/08/13 00:20:54;;;;;;;;;;;;;;;18.45;100.00;101800.75;10470115;28;20037;-79
2022/08/13 00:25:56;;;;;;;4.88;3.47;;;;;;;18.23;100.00;101799.16;10505624;28;19916;-79
2022/08/13 00:30:59;;;;;;;8.43;3.60;;;;;;;18.23;100.00;101804.72;10486372;28;20057;-79
2022/08/13 00:35:59;;;;;;;11.13;3.67;;;;;;;18.10;100.00;101794.16;10470796;28;20033;-79
2022/08/13 00:41:00;;;;;;;5.60;3.78;;;;;;;18.06;100.00;101795.84;10470126;28;20048;-79
2022/08/13 00:46:02;;;;;;;6.63;3.63;;;;;;;18.03;100.00;101802.00;10509736;27;20435;-79
2022/08/13 00:51:05;;;;;;;6.68;4.40;;;;;;;17.82;100.00;101771.38;10495052;27;20032;-78
2022/08/13 00:56:08;;;;;;;5.70;3.75;;;;;;;17.93;100.00;101800.06;10546590;27;20032;-79
2022/08/13 01:01:09;;;;;;;7.97;4.03;;;;;;;18.03;100.00;101804.78;10503524;27;20058;-79
2022/08/13 01:06:09;;;;;;;10.00;3.55;;;;;;;17.94;100.00;101787.78;10502147;28;20032;-79
2022/08/13 01:11:13;;;;;;;8.75;4.13;;;;;;;17.95;100.00;101798.66;10506618;28;20055;-78
2022/08/13 01:16:14;;;;;;;5.35;4.03;;;;;;;17.93;100.00;101809.25;10543183;28;20596;-79
2022/08/13 01:21:19;;;;;;;5.50;3.80;;;;;;;17.73;100.00;101790.56;10494307;28;20092;-79
2022/08/13 01:26:21;;;;;;;8.40;4.68;;;;;;;17.72;100.00;101799.22;10526603;28;20534;-79
2022/08/13 01:31:21;;;;;;;8.07;5.15;;;;;;;17.51;100.00;101792.84;10508252;28;20070;-79
2022/08/13 01:36:23;;;;;;;7.88;4.72;;;;;;;17.43;100.00;101791.44;10510449;27;20035;-78
2022/08/13 01:41:26;;;;;;;5.90;4.32;;;;;;;17.37;100.00;101794.50;10533622;27;20035;-79
2022/08/13 01:50:28;;;;;;;7.05;4.90;;;;;;;17.30;100.00;101797.53;10534463;27;20044;-79
2022/08/13 01:51:47;;;;;;;8.80;5.82;;;;;;;17.19;100.00;101798.66;10539697;27;20091;-79
2022/08/13 01:56:48;;;;;;;8.40;5.75;;;;;;;17.09;100.00;101785.56;10532787;27;20548;-79
2022/08/13 02:01:48;;;;;;;7.63;6.03;;;;;;;17.01;100.00;101794.44;10522216;27;20032;-79
2022/08/13 02:06:49;;;;;;;8.32;7.32;;;;;;;16.92;100.00;101792.22;10511359;27;20032;-79
2022/08/13 02:11:49;;;;;;;8.68;7.38;;;;;;;16.89;100.00;101797.50;10505455;27;20051;-79
2022/08/13 02:16:50;;;;;;;11.02;6.45;;;;;;;16.84;100.00;101792.75;10508018;27;20039;-78
2022/08/13 02:21:51;;;;;;;11.43;7.50;;;;;;;16.77;100.00;101791.31;10526195;27;20043;-79
2022/08/13 02:26:51;;;;;;;9.32;7.07;;;;;;;16.30;100.00;101718.88;10507657;27;20048;-77
2022/08/13 02:31:52;;;;;;;11.55;7.72;;;;;;;16.73;100.00;101793.81;10524786;27;20036;-79
2022/08/13 02:36:52;;;;;;;10.45;8.63;;;;;;;16.40;100.00;101751.44;10468039;28;20033;-78
2022/08/13 02:41:54;;;;;;;9.32;8.00;;;;;;;16.62;100.00;101794.88;10496864;28;20426;-79
2022/08/13 02:46:56;;;;;;;8.95;7.97;;;;;;;16.55;100.00;101790.38;10482620;28;20066;-79
2022/08/13 02:51:56;;;;;;;11.57;8.68;;;;;;;16.51;100.00;101796.78;10466652;28;20032;-78
2022/08/13 02:56:57;;;;;;;10.52;8.45;;;;;;;16.16;100.00;101742.72;10481763;28;20063;-79
2022/08/13 03:01:59;;;;;;;11.02;7.20;;;;;;;16.40;100.00;101803.41;10480496;28;20028;-79
2022/08/13 03:07:00;;;;;;;9.57;7.50;;;;;;;16.27;100.00;101794.47;10480435;28;20044;-78
2022/08/13 03:12:03;;;;;;;9.13;7.20;;;;;;;16.32;100.00;101802.81;10497825;28;20037;-79
2022/08/13 03:17:04;;;;;;;7.65;6.65;;;;;;;16.22;100.00;101802.75;10518427;28;20036;-79
2022/08/13 03:22:06;;;;;;;8.98;7.55;;;;;;;16.21;100.00;101806.66;10481856;28;20054;-79
2022/08/13 03:27:08;;;;;;;9.60;7.85;;;;;;;16.08;100.00;101804.34;10477049;28;20029;-78
2022/08/13 03:32:09;;;;;;;9.90;7.70;;;;;;;16.09;100.00;101806.03;10479660;28;20044;-78
2022/08/13 03:37:11;;;;;;;10.40;8.15;;;;;;;16.02;100.00;101805.41;10496183;28;20043;-79
2022/08/13 03:42:12;;;;;;;10.25;8.07;;;;;;;15.88;100.00;101792.00;10496996;28;20037;-78
2022/08/13 03:47:14;;;;;;;15.90;9.68;;;;;;;15.66;100.00;101769.06;10481568;28;20045;-79
2022/08/13 03:52:14;;;;;;;9.93;7.90;;;;;;;15.89;100.00;101810.34;10500061;28;20040;-78
2022/08/13 03:57:19;;;;;;;7.60;6.57;;;;;;;15.89;100.00;101818.66;10487803;27;20044;-79
2022/08/13 04:02:19;;;;;;;9.25;6.20;;;;;;;15.84;100.00;101810.31;10544430;27;20063;-78
2022/08/13 04:07:20;;;;;;;8.88;5.07;;;;;;;15.83;100.00;101813.34;10510957;27;20032;-79
2022/08/13 04:12:22;;;;;;;8.15;4.93;;;;;;;15.77;100.00;101806.09;10512387;27;20036;-78
2022/08/13 04:17:23;;;;;;;7.38;4.07;;;;;;;15.73;100.00;101803.03;10530545;27;20043;-78
2022/08/13 04:22:24;;;;;;;5.93;4.05;;;;;;;15.72;100.00;101813.28;10545187;27;20031;-80
2022/08/13 04:27:25;;;;;;;7.45;4.38;;;;;;;15.75;100.00;101817.47;10544932;27;20074;-79
2022/08/13 04:32:25;;;;;;;6.18;3.83;;;;;;;15.72;100.00;101802.16;10524908;27;20048;-79
2022/08/13 04:37:26;;;;;;;7.63;3.80;;;;;;;15.87;100.00;101826.41;10511424;27;20420;-78
2022/08/13 04:42:26;;;;;;;8.82;4.18;;;;;;;15.86;100.00;101805.31;10519777;28;20048;-78
2022/08/13 04:47:27;;;;;;;8.60;4.10;;;;;;;15.87;100.00;101804.22;10470652;28;20074;-78
2022/08/13 04:52:28;;;;;;;7.35;4.45;;;;;;;15.88;100.00;101792.00;10519503;28;20057;-79
2022/08/13 04:57:29;;;;;;;4.95;4.20;;;;;;;15.98;100.00;101805.13;10469073;28;20033;-79
2022/08/13 05:02:29;;;;;;;4.85;4.28;;;;;;;15.94;100.00;101796.50;10468981;28;20040;-78
2022/08/13 05:07:30;;;;;;;7.28;3.90;;;;;;;16.04;100.00;101794.88;10487012;27;20058;-78
2022/08/13 05:12:34;;;;;;;5.35;3.90;;;;;;;16.07;100.00;101794.34;10499603;27;20043;-76
2022/08/13 05:17:35;;;;;;;6.35;3.85;;;;;;;16.17;100.00;101799.13;10502025;28;20063;-78
2022/08/13 05:22:35;;;;;;;9.70;4.50;;;;;;;16.23;100.00;101807.22;10484028;28;20040;-78
2022/08/13 05:27:36;;;;;;;5.30;3.45;;;;;;;16.23;100.00;101798.88;10500283;27;20036;-77
2022/08/13 05:32:38;;;;;;;7.22;4.13;;;;;;;16.42;100.00;101795.63;10484347;28;20035;-78
2022/08/13 05:37:39;;;;;;;5.38;4.18;;;;;;;16.49;100.00;101788.69;10467835;28;20029;-77
2022/08/13 05:42:40;;;;;;;5.30;3.78;;;;;;;16.70;100.00;101795.19;10486322;28;20055;-78
2022/08/13 05:47:40;;;;;;;7.80;4.03;;;;;;;16.91;100.00;101801.69;10483938;28;20033;-78
2022/08/13 05:52:41;;;;;;;10.13;4.30;;;;;;;17.09;100.00;101772.47;10499607;28;20045;-78
2022/08/13 05:57:41;;;;;;;4.82;4.13;;;;;;;17.72;100.00;101791.69;10516725;28;20032;-78
2022/08/13 06:08:02;;;;;;;7.65;4.18;;;;;;;18.64;100.00;101768.28;10540404;27;20044;-78
2022/08/13 06:13:03;;;;;;;9.20;4.20;;;;;;;19.09;100.00;101776.69;10491444;27;20048;-79
2022/08/13 06:18:03;;;;;;;9.23;4.20;;;;;;;19.50;100.00;101776.38;10508499;27;20036;-78
2022/08/13 06:23:04;;;;;;;9.25;4.30;;;;;;;19.87;100.00;101778.56;10509806;27;20039;-80
2022/08/13 06:28:05;;;;;;;7.97;3.80;;;;;;;20.10;100.00;101774.13;10538989;27;20035;-85
2022/08/13 06:33:05;;;;;;;7.20;4.05;;;;;;;20.46;100.00;101786.84;10505182;27;20040;-80
2022/08/13 06:38:06;;;;;;;7.55;4.10;;;;;;;20.73;100.00;101769.44;10495811;27;20036;-80
2022/08/13 06:43:07;;;;;;;7.05;3.40;;;;;;;21.09;99.89;101783.75;10518507;27;20036;-79
2022/08/13 06:48:09;;;;;;;8.50;3.67;;;;;;;21.41;98.93;101784.91;10489383;28;20036;-80
2022/08/13 06:53:10;;;;;;;8.73;3.58;;;;;;;21.73;97.01;101777.69;10506369;27;20564;-80
2022/08/13 06:58:11;;;;;;;5.90;3.13;;;;;;;22.05;92.48;101761.91;10505854;27;20036;-79
2022/08/13 07:03:11;;;;;;;6.60;2.65;;;;;;;22.35;87.72;101769.75;10488251;27;20044;-79
2022/08/13 07:08:12;;;;;;;4.38;2.33;;;;;;;22.69;86.12;101768.44;10510177;27;20032;-80
2022/08/13 07:13:12;;;;;;;9.95;2.80;;;;;;;23.02;85.31;101773.91;10491269;28;20035;-78
2022/08/13 07:18:12;;;;;;;6.50;2.10;;;;;;;23.38;83.23;101784.28;10498771;28;20043;-79
2022/08/13 07:23:13;;;;;;;4.35;1.90;;;;;;;23.60;80.52;101763.75;10498171;28;20040;-80
2022/08/13 07:28:18;;;;;;;6.95;2.30;;;;;;;23.91;79.36;101762.94;10504259;28;20021;-79
2022/08/13 07:33:19;;;;;;;4.13;1.63;;;;;;;24.12;79.45;101768.81;10507083;28;20068;-78
2022/08/13 07:38:20;;;;;;;9.85;1.60;;;;;;;24.40;78.87;101772.25;10475204;28;20033;-78
2022/08/13 07:43:20;;;;;;;4.95;1.65;;;;;;;24.68;78.35;101778.47;10507117;28;20033;-80
2022/08/13 07:48:20;;;;;;;7.07;1.50;;;;;;;24.91;76.23;101776.34;10506206;28;20054;-80
2022/08/13 07:53:23;;;;;;;5.20;1.77;;;;;;;25.20;76.67;101785.28;10489633;28;20036;-72
2022/08/13 07:58:27;;;;;;;2.83;1.40;;;;;;;25.32;72.33;101751.63;10522194;28;20166;-72
2022/08/13 08:03:40;;;;;;;5.60;1.30;;;;;;;25.65;72.69;101773.63;10521442;28;20047;-72
2022/08/13 08:08:42;;;;;;;7.90;1.45;;;;;;;25.93;73.33;101786.19;10508592;28;20037;-73
2022/08/13 08:13:42;;;;;;;6.72;1.10;;;;;;;26.14;70.90;101774.97;10545866;27;20047;-72
2022/08/13 08:18:45;;;;;;;7.40;1.58;;;;;;;26.37;70.10;101777.53;10537709;27;20047;-71
2022/08/13 08:23:46;;;;;;;5.38;1.55;;;;;;;26.60;67.07;101774.44;10555067;27;20034;-71
2022/08/13 08:28:47;;;;;;;4.10;1.20;;;;;;;26.93;65.56;101771.72;10552210;27;20027;-72
2022/08/13 08:33:47;;;;;;;4.53;1.15;;;;;;;27.07;63.32;101758.13;10512134;28;20036;-72
2022/08/13 08:44:13;;;;;;;2.38;1.27;;;;;;;27.36;58.62;101728.94;10528300;28;20039;-73
2022/08/13 08:49:13;;;;;;;2.95;0.90;;;;;;;27.42;57.15;101706.13;10511772;28;20039;-75
2022/08/13 08:54:13;;;;;;;3.25;0.95;;;;;;;27.89;58.24;101743.34;10528325;27;20067;-72
2022/08/13 08:59:15;;;;;;;4.53;1.13;;;;;;;28.10;54.61;101725.44;10535445;27;20028;-73
2022/08/13 09:04:18;;;;;;;5.47;1.05;;;;;;;28.35;54.29;101718.56;10589827;27;20348;-73
2022/08/13 09:09:20;;;;;;;5.28;0.88;;;;;;;28.57;52.46;101710.78;10570118;27;20044;-90
2022/08/13 09:14:30;;;;;;;5.53;1.30;;;;;;;28.83;52.40;101715.19;10496080;28;20037;-87
2022/08/13 09:19:30;;;;;;;3.45;0.93;;;;;;;28.99;50.94;101707.56;10528149;28;20107;-90
2022/08/13 09:24:31;;;;;;;4.20;1.08;;;;;;;29.12;51.00;101712.03;10526622;28;20082;-88
2022/08/13 09:29:32;;;;;;;3.88;0.88;;;;;;;29.31;52.04;101721.84;10526637;28;20047;-85
2022/08/13 09:34:32;;;;;;;4.28;1.10;;;;;;;29.40;50.18;101702.69;10494208;28;20083;-81
2022/08/13 09:39:35;;;;;;;3.60;0.98;;;;;;;29.58;49.35;101708.81;10508401;28;20044;-81
2022/08/13 09:44:41;;;;;;;5.57;1.10;;;;;;;29.61;48.53;101699.59;10524313;27;20040;-81
2022/08/13 09:49:43;;;;;;;3.50;0.90;;;;;;;29.75;47.75;101699.19;10543136;28;20032;-90
2022/08/13 09:54:43;;;;;;;2.97;1.13;;;;;;;29.97;47.15;101690.00;10550677;27;20039;-86
2022/08/13 09:59:44;;;;;;;1.70;1.00;;;;;;;30.11;46.83;101683.00;10548958;27;20099;-85
2022/08/13 10:04:45;;;;;;;1.17;1.00;;;;;;;30.13;45.91;101680.63;10548543;27;20032;-84
2022/08/13 10:09:45;;;;;;;5.13;0.80;;;;;;;30.40;46.52;101689.41;10532731;27;20044;-90
2022/08/13 10:14:49;;;;;;;3.72;1.05;;;;;;;30.45;44.58;101663.50;10525275;27;20044;-89
2022/08/13 10:19:49;;;;;;;4.22;0.80;;;;;;;30.61;44.56;101661.44;10556011;27;20491;-85
2022/08/13 10:24:50;;;;;;;3.47;1.20;;;;;;;30.76;43.66;101639.84;10549331;27;20023;-84
2022/08/13 10:29:50;;;;;;;6.07;1.23;;;;;;;30.83;42.51;101617.25;10551915;27;20035;-84
2022/08/13 10:34:50;;;;;;;2.30;1.10;;;;;;;31.20;42.51;101641.53;10566115;27;20024;-85
2022/08/13 10:39:51;;;;;;;1.77;0.88;;;;;;;31.33;43.93;101634.44;10539469;27;20058;-83
2022/08/13 10:44:52;;;;;;;4.43;0.90;;;;;;;31.66;42.12;101630.97;10583180;27;20089;-85
2022/08/13 10:49:52;;;;;;;4.85;1.65;;;;;;;31.78;42.31;101638.50;10565698;27;20050;-80
2022/08/13 10:54:53;;;;;;;1.00;0.90;;;;;;;31.74;42.40;101638.44;10566652;27;20681;-80
2022/08/13 10:59:53;;;;;;;2.80;1.00;;;;;;;31.95;40.15;101615.16;10565303;27;20036;-81
2022/08/13 11:04:54;;;;;;;2.03;1.15;;;;;;;31.98;39.89;101608.72;10582774;27;20028;-83
2022/08/13 11:09:54;;;;;;;3.30;1.00;;;;;;;31.95;39.59;101614.34;10581617;27;20032;-83
2022/08/13 11:14:56;;;;;;;4.40;1.23;;;;;;;31.94;40.54;101618.41;10552931;27;20130;-79
2022/08/13 11:19:57;;;;;;;1.73;0.90;;;;;;;32.15;40.75;101621.59;10527101;27;20078;-89
2022/08/13 11:25:01;;;;;;;8.25;2.50;;;;;;;32.17;40.86;101598.44;10560664;27;20105;-84
2022/08/13 11:30:02;;;;;;;3.85;1.38;;;;;;;32.02;39.38;101520.53;10555690;27;20032;-82
2022/08/13 11:35:06;;;;;;;2.33;1.30;;;;;;;32.54;40.35;101606.28;10528962;27;20040;-80
2022/08/13 11:40:07;;;;;;;3.97;1.15;;;;;;;32.56;39.52;101593.28;10526244;27;20058;-82
2022/08/13 11:45:08;;;;;;;5.13;1.50;;;;;;;32.69;41.32;101601.56;10526368;28;20065;-86
2022/08/13 11:50:08;;;;;;;2.70;1.10;;;;;;;33.00;39.47;101588.84;10523822;27;20028;-88
2022/08/13 11:55:09;;;;;;;3.65;1.45;;;;;;;33.40;38.72;101595.78;10553740;27;20032;-76
2022/08/13 12:00:10;;;;;;;3.35;1.67;;;;;;;33.49;38.72;101589.72;10520087;28;20032;-72
2022/08/13 12:05:10;;;;;;;4.00;1.55;;;;;;;33.86;37.75;101586.78;10540823;27;20103;-78
2022/08/13 12:10:12;;;;;;;2.10;1.40;;;;;;;34.34;37.31;101569.50;10529408;28;20032;-78
2022/08/13 12:15:13;;;;;;;3.47;1.40;;;;;;;34.54;36.46;101572.00;10556715;27;20036;-79
2022/08/13 12:20:21;;;;;;;2.72;1.50;;;;;;;34.72;36.27;101555.75;10523746;27;20036;-80
2022/08/13 12:25:24;;;;;;;3.40;1.42;;;;;;;35.07;35.37;101551.31;10560983;27;20028;-79
2022/08/13 12:30:25;;;;;;;6.03;1.58;;;;;;;35.34;35.73;101536.63;10530499;28;20036;-81
2022/08/13 12:35:25;;;;;;;3.83;1.65;;;;;;;35.35;35.76;101546.88;10555024;27;20104;-78
2022/08/13 12:40:26;;;;;;;4.75;1.52;;;;;;;34.96;34.57;101536.19;10525494;28;20063;-79
2022/08/13 12:45:26;;;;;;;5.75;1.73;;;;;;;35.20;35.14;101536.63;10541711;28;20047;-80
2022/08/13 12:50:27;;;;;;;2.30;1.52;;;;;;;35.07;35.64;101531.28;10524755;28;20048;-77
2022/08/13 12:55:27;;;;;;;3.75;1.35;;;;;;;36.01;33.47;101503.38;10493377;28;20052;-72
2022/08/13 13:00:28;;;;;;;5.45;1.63;;;;;;;37.10;32.83;101505.22;10543926;28;20044;-73
2022/08/13 13:05:30;;;;;;;5.53;1.75;;;;;;;37.15;33.45;101501.91;10525353;28;20036;-74
2022/08/13 13:10:30;;;;;;;4.00;2.10;;;;;;;37.58;31.50;101499.84;10556978;27;20040;-79
2022/08/13 13:15:31;;;;;;;5.18;1.48;;;;;;;36.92;31.91;101493.03;10565419;27;20051;-76
2022/08/13 13:20:31;;;;;;;7.57;1.80;;;;;;;36.01;32.97;101488.22;10532499;27;20061;-76
2022/08/13 13:25:31;;;;;;;3.63;1.48;;;;;;;36.36;33.34;101496.69;10533618;28;20036;-75
2022/08/13 13:30:32;;;;;;;3.97;1.70;;;;;;;36.22;32.34;101479.56;10566692;28;20061;-76
2022/08/13 13:35:37;;;;;;;4.55;1.90;;;;;;;36.56;32.37;101481.81;10539671;27;20111;-75
2022/08/13 13:40:38;;;;;;;;;;;;;;;37.18;31.55;101479.31;10566050;27;20059;-76
2022/08/13 13:45:38;;;;;;;2.20;1.58;;;;;;;37.68;30.19;101471.00;10565673;27;19922;-76
2022/08/13 13:50:39;;;;;;;4.60;2.00;;;;;;;38.00;30.16;101463.25;10548428;27;20035;-75
2022/08/13 13:55:39;;;;;;;4.13;1.75;;;;;;;37.87;30.44;101458.06;10548600;27;20085;-75
2022/08/13 14:00:40;;;;;;;3.00;1.65;;;;;;;37.95;30.10;101433.75;10563767;27;20050;-76
2022/08/13 14:05:40;;;;;;;5.38;1.90;;;;;;;37.83;31.09;101447.84;10564251;27;20035;-75
2022/08/13 14:10:42;;;;;;;6.00;1.65;;;;;;;37.31;31.67;101455.41;10541204;27;20116;-77
2022/08/13 14:15:42;;;;;;;1.75;1.52;;;;;;;36.98;31.32;101442.56;10505042;28;20092;-76
2022/08/13 14:20:44;;;;;;;3.63;1.50;;;;;;;37.10;31.48;101446.97;10539561;27;20036;-75
2022/08/13 14:25:46;;;;;;;5.07;1.77;;;;;;;36.26;31.96;101445.97;10552982;27;20036;-75
2022/08/13 14:30:47;;;;;;;4.38;1.75;;;;;;;34.94;33.66;101452.81;10567909;27;20545;-76
2022/08/13 14:35:48;;;;;;;3.90;1.35;;;;;;;35.41;32.19;101430.72;10514380;28;20038;-76
2022/08/13 14:40:48;;;;;;;3.30;1.35;;;;;;;36.44;32.66;101437.22;10520482;28;20066;-78
2022/08/13 14:45:51;;;;;;;5.50;1.80;;;;;;;36.25;32.80;101421.38;10585853;27;20044;-73
2022/08/13 14:50:54;;;;;;;4.80;1.98;;;;;;;36.76;32.04;101413.25;10530113;27;20103;-76
2022/08/13 14:55:58;;;;;;;7.03;2.08;;;;;;;36.71;33.01;101403.06;10531263;27;20042;-73
2022/08/13 15:00:59;;;;;;;2.78;2.05;;;;;;;37.05;33.11;101405.19;10562267;27;20099;-75
2022/08/13 15:06:03;;;;;;;8.30;2.28;;;;;;;36.63;33.12;101404.34;10528973;27;20036;-77
2022/08/13 15:11:04;;;;;;;10.43;2.70;;;;;;;36.27;33.99;101401.72;10529541;27;20035;-76
2022/08/13 15:16:07;;;;;;;7.13;2.33;;;;;;;34.63;35.45;101420.91;10545659;27;20040;-76
2022/08/13 15:21:08;;;;;;;5.05;1.98;;;;;;;33.51;37.39;101414.00;10530554;27;20027;-75
2022/08/13 15:26:09;;;;;;;3.65;2.30;;;;;;;34.02;36.49;101403.63;10579967;27;20040;-79
2022/08/13 15:31:11;;;;;;;3.67;2.05;;;;;;;35.16;35.24;101402.97;10544873;27;20035;-77
2022/08/13 15:36:13;;;;;;;4.22;2.08;;;;;;;35.75;34.84;101385.19;10544796;27;20368;-77
2022/08/13 15:41:13;;;;;;;2.83;2.13;;;;;;;36.30;34.16;101383.69;10545547;27;20054;-73
2022/08/13 15:46:15;;;;;;;6.47;2.30;;;;;;;35.92;34.92;101363.41;10545500;27;20032;-73
2022/08/13 15:51:16;;;;;;;7.10;2.28;;;;;;;35.59;35.04;101363.97;10589797;27;20039;-73
2022/08/13 15:56:16;;;;;;;3.38;2.42;;;;;;;35.75;34.67;101364.34;10554001;27;20028;-73
2022/08/13 16:01:20;;;;;;;5.00;2.85;;;;;;;35.06;35.65;101365.72;10586473;27;20069;-74
2022/08/13 16:06:26;;;;;;;4.53;2.30;;;;;;;33.52;37.75;101369.97;10553634;27;20038;-80
2022/08/13 16:11:27;;;;;;;10.60;2.55;;;;;;;32.15;39.46;101358.72;10586311;27;20047;-72
2022/08/13 16:16:27;;;;;;;6.53;2.78;;;;;;;31.56;40.93;101376.31;10536415;27;20062;-71
2022/08/13 16:21:40;;;;;;;3.10;2.65;;;;;;;31.04;41.70;101371.50;10553561;27;20346;-73
2022/08/13 16:26:40;;;;;;;4.40;2.20;;;;;;;30.79;42.22;101360.53;10569848;27;20035;-73
2022/08/13 16:31:42;;;;;;;3.20;2.67;;;;;;;30.82;42.81;101364.63;10551443;27;20039;-73
2022/08/13 16:36:43;;;;;;;6.63;2.80;;;;;;;30.71;43.10;101367.28;10551719;27;20047;-71
2022/08/13 16:41:43;;;;;;;3.50;2.60;;;;;;;30.33;43.01;101349.22;10586342;27;20066;-71
2022/08/13 16:46:44;;;;;;;5.15;2.47;;;;;;;30.04;43.52;101340.13;10552320;27;20511;-73
2022/08/13 16:51:44;;;;;;;3.67;2.80;;;;;;;29.85;43.96;101337.31;10534959;27;20376;-72
2022/08/13 16:56:45;;;;;;;3.70;2.70;;;;;;;29.81;45.14;101354.28;10567919;27;20035;-71
2022/08/13 17:01:47;;;;;;;2.83;2.63;;;;;;;29.67;46.29;101351.94;10585085;27;20085;-71
2022/08/13 17:12:07;;;;;;;4.38;2.25;;;;;;;29.09;48.34;101343.38;10570241;27;20044;-72
2022/08/13 17:17:09;;;;;;;6.32;2.78;;;;;;;28.94;49.17;101354.38;10602474;27;20083;-72
2022/08/13 17:22:09;;;;;;;3.90;2.55;;;;;;;28.80;49.71;101348.38;10585875;27;20034;-72
2022/08/13 17:27:10;;;;;;;4.40;2.40;;;;;;;28.80;51.39;101358.88;10584697;27;20076;-73
2022/08/13 17:32:10;;;;;;;3.50;2.45;;;;;;;28.60;51.35;101350.28;10583003;27;20057;-73
2022/08/13 17:37:10;;;;;;;3.83;2.47;;;;;;;28.56;51.30;101360.72;10549242;27;20036;-73
2022/08/13 17:42:11;;;;;;;5.15;2.90;;;;;;;28.38;51.61;101349.72;10584672;27;20043;-69
2022/08/13 17:47:11;;;;;;;3.55;2.33;;;;;;;28.27;52.92;101353.47;10549809;27;20050;-73
2022/08/13 17:52:12;;;;;;;4.00;2.17;;;;;;;28.07;53.49;101344.03;10532058;27;20035;-69
2022/08/13 17:57:13;;;;;;;4.85;2.30;;;;;;;28.00;54.31;101372.16;10583562;27;20028;-74
2022/08/13 18:02:14;;;;;;;4.88;2.33;;;;;;;27.85;55.25;101365.22;10583217;27;20039;-71
2022/08/13 18:07:15;;;;;;;9.63;2.65;;;;;;;27.68;55.61;101366.34;10547853;27;20085;-70
2022/08/13 18:12:16;;;;;;;6.65;2.25;;;;;;;27.44;56.53;101361.63;10583131;27;20043;-82
2022/08/13 18:17:16;;;;;;;2.30;2.10;;;;;;;27.33;58.45;101383.91;10565693;27;20070;-76
2022/08/13 18:22:17;;;;;;;4.88;2.13;;;;;;;27.14;57.48;101385.31;10564494;27;20064;-77
2022/08/13 18:27:19;;;;;;;3.92;1.90;;;;;;;26.91;58.35;101370.03;10564045;27;20024;-77
2022/08/13 18:32:19;;;;;;;2.78;2.00;;;;;;;26.75;58.70;101379.22;10581861;27;20402;-77
2022/08/13 18:37:20;;;;;;;3.88;1.65;;;;;;;26.56;59.09;101385.41;10582056;27;20031;-75
2022/08/13 18:42:20;;;;;;;2.70;1.83;;;;;;;26.34;60.59;101383.84;10547127;27;20035;-75
2022/08/13 18:47:21;;;;;;;6.97;2.22;;;;;;;26.11;60.23;101391.09;10530583;27;20109;-75
2022/08/13 18:52:21;;;;;;;7.75;1.80;;;;;;;25.57;61.00;101350.41;10529917;27;20028;-75
2022/08/13 18:57:22;;;;;;;5.80;1.67;;;;;;;25.68;59.57;101381.81;10562744;27;20101;-78
2022/08/13 19:02:22;;;;;;;4.93;1.85;;;;;;;25.40;60.25;101375.91;10562214;27;20032;-75
2022/08/13 19:07:23;;;;;;;4.10;2.10;;;;;;;25.25;60.88;101379.34;10529705;27;20055;-77
2022/08/13 19:12:25;;;;;;;4.72;1.52;;;;;;;25.05;62.00;101386.56;10563606;27;20039;-75
2022/08/13 19:17:25;;;;;;;3.60;1.70;;;;;;;24.94;63.10;101398.22;10563579;27;20032;-75
2022/08/13 19:22:26;;;;;;;2.75;1.83;;;;;;;24.76;63.55;101394.69;10528605;27;20032;-73
2022/08/13 19:27:26;;;;;;;6.80;1.67;;;;;;;24.62;63.90;101390.44;10544844;27;20035;-74
2022/08/13 19:32:27;;;;;;;13.45;2.25;;;;;;;24.41;65.77;101399.56;10579726;27;20096;-75
2022/08/13 19:37:28;;;;;;;4.72;2.35;;;;;;;24.28;67.02;101401.44;10580130;27;20032;-75
2022/08/13 19:42:29;;;;;;;4.85;1.85;;;;;;;23.89;66.83;101361.13;10562732;27;20047;-73
2022/08/13 19:47:29;;;;;;;5.68;1.95;;;;;;;24.06;68.09;101415.72;10580943;27;20039;-72
2022/08/13 19:52:30;;;;;;;5.80;2.83;;;;;;;23.75;68.42;101399.81;10561214;27;20036;-73
2022/08/13 19:57:30;;;;;;;4.20;1.98;;;;;;;23.76;70.11;101416.41;10526453;27;20049;-72
2022/08/13 20:02:34;;;;;;;3.33;2.08;;;;;;;23.60;71.57;101409.59;10542650;27;20067;-77
2022/08/13 20:07:35;;;;;;;3.85;2.00;;;;;;;23.43;75.32;101415.19;10526437;27;20376;-76
2022/08/13 20:12:36;;;;;;;7.97;1.80;;;;;;;23.34;76.56;101420.81;10497585;27;20032;-77
2022/08/13 20:17:37;;;;;;;4.35;1.95;;;;;;;23.27;77.98;101428.88;10477868;27;20153;-77
2022/08/13 20:22:39;;;;;;;4.95;1.65;;;;;;;23.06;78.81;101421.06;10486902;27;20531;-77
2022/08/13 20:27:42;;;;;;;7.38;1.90;;;;;;;22.97;81.16;101420.19;10516211;27;20507;-77
2022/08/13 20:32:42;;;;;;;4.20;2.17;;;;;;;22.78;82.64;101417.66;10493918;27;20051;-78
2022/08/13 20:37:43;;;;;;;8.43;2.30;;;;;;;22.66;84.34;101421.06;10452600;28;20029;-77
2022/08/13 20:42:45;;;;;;;4.38;2.80;;;;;;;22.56;85.84;101432.56;10494317;28;20037;-77
2022/08/13 20:47:46;;;;;;;8.13;2.28;;;;;;;22.48;87.62;101433.34;10526697;27;20062;-77
2022/08/13 20:52:47;;;;;;;3.33;1.98;;;;;;;22.42;90.16;101448.66;10491462;27;20093;-77
2022/08/13 20:57:48;;;;;;;4.85;2.10;;;;;;;22.34;92.23;101447.44;10503163;27;22395;-77
2022/08/13 21:02:53;;;;;;;4.18;2.63;;;;;;;22.21;93.56;101446.34;10537850;27;20066;-77
2022/08/13 21:07:56;;;;;;;4.32;2.75;;;;;;;22.09;97.07;101446.09;10505371;27;20040;-77
2022/08/13 21:12:59;;;;;;;7.68;2.53;;;;;;;21.95;99.35;101441.41;10521039;27;20047;-77
2022/08/13 21:17:59;;;;;;;3.25;2.63;;;;;;;21.92;100.00;101444.81;10504023;27;20106;-77
2022/08/13 21:23:00;;;;;;;4.45;2.78;;;;;;;21.47;100.00;101396.31;10504769;27;20036;-76
2022/08/13 21:28:00;;;;;;;3.30;2.80;;;;;;;21.72;100.00;101448.09;10536260;27;20024;-76
2022/08/13 21:33:03;;;;;;;4.65;2.90;;;;;;;21.61;100.00;101439.13;10537618;27;20039;-76
2022/08/13 21:38:05;;;;;;;8.82;3.17;;;;;;;21.45;100.00;101421.00;10538328;27;20029;-76
2022/08/13 21:43:07;;;;;;;7.57;3.33;;;;;;;21.45;100.00;101437.81;10500963;27;20051;-76
2022/08/13 21:48:07;;;;;;;5.00;3.63;;;;;;;21.39;100.00;101434.25;10500571;27;20099;-77
2022/08/13 21:53:22;;;;;;;12.57;4.57;;;;;;;21.33;100.00;101432.69;10501484;27;20055;-77
2022/08/13 21:58:22;;;;;;;4.40;3.40;;;;;;;21.34;100.00;101437.19;10564671;27;20028;-76
2022/08/13 22:03:26;;;;;;;6.55;4.00;;;;;;;21.31;100.00;101430.25;10479181;28;20551;-76
2022/08/13 22:08:28;;;;;;;4.47;3.70;;;;;;;21.28;100.00;101432.81;10520059;27;20052;-76
2022/08/13 22:13:30;;;;;;;6.60;4.45;;;;;;;21.26;100.00;101432.31;10536122;27;20044;-76
2022/08/13 22:18:30;;;;;;;5.90;3.78;;;;;;;21.20;100.00;101419.56;10519377;27;20066;-76
2022/08/13 22:23:31;;;;;;;8.57;3.95;;;;;;;21.21;100.00;101424.00;10499980;27;20089;-76
2022/08/13 22:33:52;;;;;;;7.78;4.20;;;;;;;21.28;100.00;101427.22;10507671;27;20502;-76
2022/08/13 22:38:53;;;;;;;6.85;4.72;;;;;;;21.28;100.00;101422.44;10514386;27;20093;-77
2022/08/13 22:43:53;;;;;;;6.03;4.82;;;;;;;21.23;100.00;101416.97;10485146;27;20533;-77
2022/08/13 22:48:56;;;;;;;11.18;4.68;;;;;;;21.29;100.00;101428.88;10500994;27;20024;-77
2022/08/13 22:53:57;;;;;;;6.78;4.63;;;;;;;21.17;100.00;101419.03;10534631;27;20043;-76
2022/08/13 22:58:58;;;;;;;10.20;5.13;;;;;;;21.14;100.00;101416.84;10483631;27;20032;-76
2022/08/13 23:04:00;;;;;;;7.18;4.78;;;;;;;21.09;100.00;101419.78;10537740;27;20032;-77
2022/08/13 23:09:01;;;;;;;9.07;5.32;;;;;;;20.97;100.00;101408.28;10516769;27;20044;-77
2022/08/13 23:14:01;;;;;;;6.93;5.03;;;;;;;20.93;100.00;101426.84;10515793;27;20481;-77
2022/08/13 23:19:02;;;;;;;7.05;5.25;;;;;;;20.79;100.00;101414.81;10515967;27;20043;-74